Littleton, Maine
Current Conditions -  °F | °C
As of 11:53 PM on Wednesday 26 Nov 2014 (Local Time) from KHUL Reporting Station
Light Snow Light Snow  
Wind Chill: 16°   Ceiling: 600
Heat Index: 28°   Visibility: 0.75mi
Dew Point: 26°   Wind: 16mph
Humidity: 92%   Direction: 10°N
Pressure: 29.88"   Gusts: NA
Location:  46.1163°N, 67.9329°W
Report Text: KHUL 270453Z AUTO 01014KT 3/4SM -SN BR VV006 M02/M03 A2988 RMK AO2 PRESFR SLP124 P0002 T10221033 400671022
Loading
Personal Weather Stations






























Interactive Weather Map New forecast layout! Learn more

10-Day Weather Forecast

Advertisements
Track Severe Weather on mobile